createdAt,value
2023-05-18T00:01:31.845Z,5.40
2023-05-18T00:03:58.208Z,5.77
2023-05-18T00:06:24.602Z,5.97
2023-05-18T00:08:51.009Z,5.44
2023-05-18T00:11:17.269Z,4.27
2023-05-18T00:13:43.694Z,4.52
2023-05-18T00:16:09.971Z,4.71
2023-05-18T00:18:36.283Z,5.28
2023-05-18T00:21:02.586Z,5.66
2023-05-18T00:23:31.853Z,5.58
2023-05-18T00:26:01.495Z,5.35
2023-05-18T00:28:28.304Z,5.11
2023-05-18T00:30:54.719Z,5.38
2023-05-18T00:33:21.145Z,5.46
2023-05-18T00:35:47.425Z,5.70
2023-05-18T00:38:13.684Z,5.69
2023-05-18T00:40:39.949Z,5.75
2023-05-18T00:43:06.197Z,4.73
2023-05-18T00:45:32.757Z,4.14
2023-05-18T00:47:59.188Z,3.41
2023-05-18T00:50:25.477Z,3.77
2023-05-18T00:52:51.734Z,4.58
2023-05-18T00:55:18.020Z,4.99
2023-05-18T00:57:44.284Z,4.89
2023-05-18T01:00:10.969Z,5.21
2023-05-18T01:02:37.831Z,3.92
2023-05-18T01:05:04.178Z,4.56
2023-05-18T01:07:30.474Z,5.03
2023-05-18T01:09:56.737Z,5.21
2023-05-18T01:12:32.648Z,4.43
2023-05-18T01:14:59.992Z,4.83
2023-05-18T01:17:32.479Z,3.91
2023-05-18T01:20:04.848Z,4.11
2023-05-18T01:22:38.064Z,4.79
2023-05-18T01:25:05.216Z,5.10
2023-05-18T01:27:31.718Z,4.86
2023-05-18T01:29:57.982Z,5.01
2023-05-18T01:32:24.246Z,5.10
2023-05-18T01:34:50.523Z,5.18
2023-05-18T01:37:16.775Z,5.17
2023-05-18T01:39:43.032Z,4.76
2023-05-18T01:42:13.028Z,4.68
2023-05-18T01:44:39.219Z,4.88
2023-05-18T01:47:10.431Z,4.11
2023-05-18T01:49:56.756Z,2.89
2023-05-18T01:52:24.762Z,2.51
2023-05-18T01:54:52.541Z,3.38
2023-05-18T01:57:18.795Z,3.96
2023-05-18T01:59:45.054Z,4.33
2023-05-18T02:02:11.372Z,3.65
2023-05-18T02:04:37.657Z,3.71
2023-05-18T02:07:03.907Z,4.14
2023-05-18T02:09:30.179Z,4.16
2023-05-18T02:11:56.417Z,4.55
2023-05-18T02:14:22.688Z,4.64
2023-05-18T02:16:48.940Z,4.69
2023-05-18T02:19:15.299Z,4.54
2023-05-18T02:21:41.660Z,4.09
2023-05-18T02:24:08.049Z,4.50
2023-05-18T02:26:34.305Z,4.58
2023-05-18T02:29:00.569Z,3.54
2023-05-18T02:31:26.841Z,3.17
2023-05-18T02:33:53.106Z,3.51
2023-05-18T02:36:19.354Z,3.96
2023-05-18T02:38:45.613Z,4.12
2023-05-18T02:41:11.888Z,4.06
2023-05-18T02:43:38.169Z,4.29
2023-05-18T02:46:04.470Z,4.45
2023-05-18T02:48:30.809Z,3.88
2023-05-18T02:50:57.060Z,3.15
2023-05-18T02:53:23.356Z,3.10
2023-05-18T02:55:49.625Z,3.65
2023-05-18T02:58:16.093Z,3.96
2023-05-18T03:00:42.349Z,3.93
2023-05-18T03:03:08.721Z,3.95
2023-05-18T03:05:35.118Z,4.22
2023-05-18T03:08:01.365Z,4.34
2023-05-18T03:10:27.610Z,4.25
2023-05-18T03:12:53.877Z,4.02
2023-05-18T03:15:20.146Z,3.73
2023-05-18T03:17:46.473Z,3.64
2023-05-18T03:20:12.742Z,3.78
2023-05-18T03:22:39.014Z,3.42
2023-05-18T03:25:05.357Z,3.76
2023-05-18T03:27:31.612Z,3.69
2023-05-18T03:29:57.859Z,3.54
2023-05-18T03:32:24.126Z,3.55
2023-05-18T03:34:50.803Z,3.85
2023-05-18T03:37:17.277Z,3.88
2023-05-18T03:39:43.547Z,3.70
2023-05-18T03:42:09.815Z,3.74
2023-05-18T03:44:36.088Z,3.67
2023-05-18T03:47:02.347Z,4.08
2023-05-18T03:49:28.615Z,4.17
2023-05-18T03:51:54.916Z,4.22
2023-05-18T03:54:21.176Z,3.58
2023-05-18T03:56:47.426Z,3.97
2023-05-18T03:59:13.880Z,3.95
2023-05-18T04:01:40.182Z,4.01
2023-05-18T04:04:06.506Z,3.70
2023-05-18T04:06:32.778Z,3.48
2023-05-18T04:08:59.037Z,3.60
2023-05-18T04:11:25.284Z,3.93
2023-05-18T04:13:51.537Z,4.28
2023-05-18T04:16:17.807Z,3.79
2023-05-18T04:18:44.133Z,3.99
2023-05-18T04:21:10.418Z,4.28
2023-05-18T04:23:36.668Z,4.18
2023-05-18T04:26:02.908Z,3.93
2023-05-18T04:28:29.156Z,3.87
2023-05-18T04:30:55.415Z,4.06
2023-05-18T04:33:21.665Z,4.14
2023-05-18T04:35:48.138Z,4.21
2023-05-18T04:38:14.396Z,4.20
2023-05-18T04:40:40.637Z,4.36
2023-05-18T04:43:06.916Z,4.37
2023-05-18T04:45:33.376Z,4.50
2023-05-18T04:47:59.786Z,4.61
2023-05-18T04:50:26.254Z,4.74
2023-05-18T04:52:52.577Z,4.74
2023-05-18T04:55:19.503Z,4.86
2023-05-18T04:57:45.774Z,5.08
2023-05-18T05:00:12.211Z,5.24
2023-05-18T05:02:38.644Z,5.44
2023-05-18T05:05:05.120Z,5.71
2023-05-18T05:07:31.387Z,6.01
2023-05-18T05:09:57.654Z,6.39
2023-05-18T05:12:23.905Z,6.79
2023-05-18T05:14:50.163Z,7.18
2023-05-18T05:17:16.402Z,7.61
2023-05-18T05:19:42.658Z,8.07
2023-05-18T05:22:08.909Z,8.37
2023-05-18T05:24:35.169Z,8.85
2023-05-18T05:27:01.428Z,8.95
2023-05-18T05:29:27.681Z,9.12
2023-05-18T05:31:54.028Z,8.91
2023-05-18T05:34:20.345Z,9.54
2023-05-18T05:36:46.602Z,9.56
2023-05-18T05:39:13.226Z,9.71
2023-05-18T05:41:39.479Z,10.89
2023-05-18T05:44:05.727Z,11.75
2023-05-18T05:46:32.016Z,11.67
2023-05-18T05:48:58.291Z,11.43
2023-05-18T05:51:24.540Z,11.95
2023-05-18T05:53:50.804Z,11.44
2023-05-18T05:56:17.041Z,11.98
2023-05-18T05:58:43.739Z,13.07
2023-05-18T06:01:10.028Z,12.76
2023-05-18T06:03:36.400Z,12.07
2023-05-18T06:06:02.727Z,12.76
2023-05-18T06:08:28.983Z,13.28
2023-05-18T06:10:55.244Z,13.18
2023-05-18T06:13:21.490Z,12.65
2023-05-18T06:15:47.757Z,12.56
2023-05-18T06:18:14.062Z,12.29
2023-05-18T06:20:40.570Z,12.26
2023-05-18T06:23:06.819Z,12.12
2023-05-18T06:25:33.224Z,13.01
2023-05-18T06:27:59.624Z,12.42
2023-05-18T06:30:25.869Z,11.10
2023-05-18T06:32:52.173Z,10.72
2023-05-18T06:35:18.471Z,10.31
2023-05-18T06:37:46.792Z,10.16
2023-05-18T06:40:13.338Z,10.12
2023-05-18T06:42:39.594Z,10.28
2023-05-18T06:45:06.143Z,10.31
2023-05-18T06:47:32.393Z,10.62
2023-05-18T06:49:58.670Z,10.80
2023-05-18T06:52:26.979Z,10.56
2023-05-18T06:54:53.409Z,10.53
2023-05-18T06:57:19.646Z,10.62
2023-05-18T06:59:45.915Z,10.46
2023-05-18T07:02:12.408Z,10.16
2023-05-18T07:04:38.726Z,10.18
2023-05-18T07:07:05.131Z,10.01
2023-05-18T07:09:31.413Z,9.80
2023-05-18T07:11:57.652Z,9.87
2023-05-18T07:14:23.930Z,9.88
2023-05-18T07:16:50.385Z,9.89
2023-05-18T07:19:16.677Z,9.85
2023-05-18T07:21:42.986Z,9.74
2023-05-18T07:24:09.243Z,9.84
2023-05-18T07:26:35.486Z,9.97
2023-05-18T07:29:01.737Z,9.87
2023-05-18T07:31:28.014Z,9.84
2023-05-18T07:33:54.347Z,9.86
2023-05-18T07:36:20.588Z,9.96
2023-05-18T07:38:46.844Z,10.25
2023-05-18T07:41:13.099Z,10.37
2023-05-18T07:43:39.366Z,10.61
2023-05-18T07:46:05.648Z,10.71
2023-05-18T07:48:31.911Z,10.93
2023-05-18T07:50:58.182Z,11.05
2023-05-18T07:53:24.448Z,11.43
2023-05-18T07:55:50.718Z,11.49
2023-05-18T07:58:17.000Z,11.22
2023-05-18T08:00:43.443Z,10.99
2023-05-18T08:03:09.748Z,11.34
2023-05-18T08:05:36.077Z,11.31
2023-05-18T08:08:03.404Z,11.14
2023-05-18T08:10:31.456Z,10.97
2023-05-18T08:12:57.729Z,11.44
2023-05-18T08:15:23.987Z,12.03
2023-05-18T08:17:50.313Z,11.82
2023-05-18T08:20:16.595Z,11.50
2023-05-18T08:22:42.855Z,11.59
2023-05-18T08:25:09.202Z,11.36
2023-05-18T08:27:35.468Z,11.09
2023-05-18T08:30:01.725Z,11.06
2023-05-18T08:32:28.059Z,11.18
2023-05-18T08:34:54.339Z,11.10
2023-05-18T08:37:20.602Z,10.93
2023-05-18T08:39:46.872Z,10.70
2023-05-18T08:42:17.579Z,10.71
2023-05-18T08:44:50.115Z,10.79
2023-05-18T08:47:16.384Z,11.00
2023-05-18T08:49:42.640Z,10.93
2023-05-18T08:52:08.994Z,10.86
2023-05-18T08:54:36.145Z,11.12
2023-05-18T08:57:03.198Z,11.14
2023-05-18T08:59:30.794Z,10.98
2023-05-18T09:01:57.095Z,11.39
2023-05-18T09:04:23.432Z,11.33
2023-05-18T09:06:49.721Z,11.79
2023-05-18T09:09:16.002Z,11.75
2023-05-18T09:11:42.276Z,11.88
2023-05-18T09:14:08.565Z,12.13
2023-05-18T09:16:34.936Z,11.85
2023-05-18T09:19:01.409Z,12.12
2023-05-18T09:21:27.749Z,12.55
2023-05-18T09:23:53.998Z,12.42
2023-05-18T09:26:20.274Z,12.01
2023-05-18T09:28:46.545Z,12.17
2023-05-18T09:31:19.332Z,12.27
2023-05-18T09:33:45.824Z,11.98
2023-05-18T09:36:12.190Z,12.25
2023-05-18T09:38:38.864Z,13.52
2023-05-18T09:41:09.234Z,14.42
2023-05-18T09:43:35.470Z,14.52
2023-05-18T09:46:01.805Z,13.72
2023-05-18T09:48:28.070Z,12.58
2023-05-18T09:50:54.336Z,12.39
2023-05-18T09:53:20.585Z,13.31
2023-05-18T09:55:47.470Z,13.14
2023-05-18T09:58:13.708Z,13.31
2023-05-18T10:00:40.995Z,13.50
2023-05-18T10:03:12.057Z,12.42
2023-05-18T10:05:38.445Z,12.77
2023-05-18T10:08:04.898Z,12.62
2023-05-18T10:10:31.419Z,12.18
2023-05-18T10:12:57.878Z,12.38
2023-05-18T10:15:24.157Z,11.91
2023-05-18T10:17:51.301Z,11.76
2023-05-18T10:20:18.332Z,12.10
2023-05-18T10:22:47.650Z,12.35
2023-05-18T10:25:16.187Z,12.90
2023-05-18T10:27:42.449Z,13.52
2023-05-18T10:30:08.888Z,13.90
2023-05-18T10:32:35.450Z,13.77
2023-05-18T10:35:02.085Z,13.98
2023-05-18T10:37:28.400Z,14.44
2023-05-18T10:39:54.691Z,15.09
2023-05-18T10:42:21.002Z,15.75
2023-05-18T10:44:47.378Z,15.75
2023-05-18T10:47:14.556Z,15.51
2023-05-18T10:49:42.494Z,15.19
2023-05-18T10:52:10.530Z,15.41
2023-05-18T10:54:36.790Z,14.67
2023-05-18T10:57:03.057Z,14.35
2023-05-18T10:59:29.300Z,14.41
2023-05-18T11:01:55.910Z,13.70
2023-05-18T11:04:25.574Z,14.26
2023-05-18T11:07:01.075Z,14.24
2023-05-18T11:09:28.268Z,13.60
2023-05-18T11:11:56.378Z,13.26
2023-05-18T11:14:29.468Z,13.16
2023-05-18T11:17:14.470Z,13.60
2023-05-18T11:19:40.724Z,14.08
2023-05-18T11:22:11.650Z,14.72
2023-05-18T11:24:37.914Z,14.43
2023-05-18T11:27:14.251Z,14.17
2023-05-18T11:29:41.142Z,14.85
2023-05-18T11:32:29.279Z,15.39
2023-05-18T11:34:56.996Z,14.76
2023-05-18T11:37:47.140Z,14.71
2023-05-18T11:40:14.457Z,14.52
2023-05-18T11:42:40.771Z,14.06
2023-05-18T11:45:07.520Z,14.51
2023-05-18T11:47:33.893Z,14.78
2023-05-18T11:50:00.212Z,15.20
2023-05-18T11:52:26.475Z,14.84
2023-05-18T11:54:53.516Z,14.87
2023-05-18T11:57:26.449Z,14.95
2023-05-18T11:59:56.231Z,14.84
2023-05-18T12:02:26.394Z,14.78
2023-05-18T12:04:53.236Z,14.77
2023-05-18T12:07:19.540Z,15.04
2023-05-18T12:09:45.804Z,14.99
2023-05-18T12:12:12.307Z,15.49
2023-05-18T12:14:38.982Z,15.20
2023-05-18T12:17:05.490Z,15.53
2023-05-18T12:19:36.528Z,15.35
2023-05-18T12:22:02.806Z,14.93
2023-05-18T12:24:29.069Z,14.67
2023-05-18T12:26:55.320Z,14.71
2023-05-18T12:29:21.586Z,14.80
2023-05-18T12:31:47.836Z,15.17
2023-05-18T12:34:14.270Z,15.26
2023-05-18T12:36:40.915Z,15.17
2023-05-18T12:39:07.190Z,15.39
2023-05-18T12:41:33.441Z,15.33
2023-05-18T12:43:59.692Z,15.40
2023-05-18T12:46:26.147Z,15.25
2023-05-18T12:48:55.994Z,15.17
2023-05-18T12:51:22.244Z,15.23
2023-05-18T12:53:48.716Z,15.61
2023-05-18T12:56:14.982Z,15.43
2023-05-18T12:58:41.247Z,15.20
2023-05-18T13:01:10.791Z,15.49
2023-05-18T13:03:40.213Z,15.01
2023-05-18T13:06:07.052Z,15.03
2023-05-18T13:08:33.769Z,14.80
2023-05-18T13:11:13.699Z,15.39
2023-05-18T13:13:56.879Z,15.65
2023-05-18T13:16:23.206Z,15.98
2023-05-18T13:18:55.211Z,15.57
2023-05-18T13:21:21.481Z,15.64
2023-05-18T13:23:47.731Z,15.85
2023-05-18T13:26:13.981Z,15.67
2023-05-18T13:28:40.226Z,15.64
2023-05-18T13:31:06.527Z,15.62
2023-05-18T13:33:32.775Z,15.40
2023-05-18T13:35:59.050Z,15.45
2023-05-18T13:38:25.329Z,15.40
2023-05-18T13:40:51.635Z,15.57
2023-05-18T13:43:17.900Z,15.41
2023-05-18T13:45:44.208Z,15.72
2023-05-18T13:48:11.129Z,15.07
2023-05-18T13:50:37.879Z,14.84
2023-05-18T13:53:04.315Z,14.49
2023-05-18T13:55:30.751Z,14.82
2023-05-18T13:57:57.249Z,14.84
2023-05-18T14:00:23.507Z,14.91
2023-05-18T14:02:49.879Z,15.05
2023-05-18T14:05:16.237Z,15.01
2023-05-18T14:07:42.592Z,15.33
2023-05-18T14:10:09.345Z,15.03
2023-05-18T14:12:35.685Z,15.02
2023-05-18T14:15:02.157Z,14.89
2023-05-18T14:17:28.444Z,14.37
2023-05-18T14:19:54.722Z,14.43
2023-05-18T14:22:20.985Z,14.17
2023-05-18T14:24:50.215Z,14.27
2023-05-18T14:27:16.479Z,14.07
2023-05-18T14:29:42.754Z,13.93
2023-05-18T14:32:09.023Z,14.02
2023-05-18T14:34:35.301Z,14.04
2023-05-18T14:37:01.555Z,13.92
2023-05-18T14:39:27.792Z,14.08
2023-05-18T14:41:54.047Z,13.74
2023-05-18T14:44:22.012Z,13.95
2023-05-18T14:46:48.330Z,14.08
2023-05-18T14:49:14.632Z,13.88
2023-05-18T14:51:40.883Z,13.97
2023-05-18T14:54:10.050Z,13.85
2023-05-18T14:56:36.350Z,13.72
2023-05-18T14:59:02.601Z,13.87
2023-05-18T15:01:28.895Z,13.70
2023-05-18T15:03:55.216Z,13.84
2023-05-18T15:06:21.903Z,13.93
2023-05-18T15:08:48.166Z,13.77
2023-05-18T15:11:14.424Z,13.54
2023-05-18T15:13:40.668Z,13.56
2023-05-18T15:16:06.965Z,13.58
2023-05-18T15:18:33.272Z,13.70
2023-05-18T15:20:59.554Z,13.61
2023-05-18T15:23:25.791Z,13.43
2023-05-18T15:25:52.050Z,13.47
2023-05-18T15:28:18.367Z,13.60
2023-05-18T15:30:44.628Z,13.61
2023-05-18T15:33:10.945Z,13.69
2023-05-18T15:35:37.230Z,13.69
2023-05-18T15:38:03.500Z,13.66
2023-05-18T15:40:29.942Z,13.78
2023-05-18T15:42:56.379Z,13.68
2023-05-18T15:45:22.636Z,13.58
2023-05-18T15:47:48.941Z,13.59
2023-05-18T15:50:15.193Z,13.44
2023-05-18T15:52:41.471Z,13.49
2023-05-18T15:55:07.880Z,13.50
2023-05-18T15:57:34.159Z,13.13
2023-05-18T16:00:00.451Z,13.31
2023-05-18T16:02:26.870Z,13.29
2023-05-18T16:04:53.141Z,13.44
2023-05-18T16:07:19.408Z,13.51
2023-05-18T16:09:45.659Z,13.49
2023-05-18T16:12:11.950Z,13.66
2023-05-18T16:14:38.200Z,13.60
2023-05-18T16:17:04.584Z,13.47
2023-05-18T16:19:30.879Z,13.62
2023-05-18T16:21:57.154Z,13.50
2023-05-18T16:24:23.404Z,13.55
2023-05-18T16:26:49.659Z,13.46
2023-05-18T16:29:15.925Z,13.38
2023-05-18T16:31:42.242Z,13.43
2023-05-18T16:34:08.543Z,13.67
2023-05-18T16:36:34.804Z,13.56
2023-05-18T16:39:01.089Z,13.47
2023-05-18T16:41:27.360Z,13.49
2023-05-18T16:43:53.615Z,13.36
2023-05-18T16:46:20.006Z,13.37
2023-05-18T16:48:46.373Z,13.39
2023-05-18T16:51:12.625Z,13.49
2023-05-18T16:53:38.875Z,13.63
2023-05-18T16:56:05.219Z,13.60
2023-05-18T16:58:31.489Z,13.49
2023-05-18T17:00:57.808Z,13.37
2023-05-18T17:03:24.125Z,13.15
2023-05-18T17:05:50.406Z,13.29
2023-05-18T17:08:16.668Z,13.28
2023-05-18T17:10:42.940Z,13.14
2023-05-18T17:13:09.188Z,12.92
2023-05-18T17:15:35.459Z,12.89
2023-05-18T17:18:01.908Z,12.79
2023-05-18T17:20:28.259Z,12.66
2023-05-18T17:22:54.508Z,12.52
2023-05-18T17:25:20.774Z,12.47
2023-05-18T17:27:47.048Z,12.45
2023-05-18T17:30:13.443Z,12.50
2023-05-18T17:32:39.850Z,12.57
2023-05-18T17:35:06.397Z,12.65
2023-05-18T17:37:32.660Z,12.76
2023-05-18T17:39:58.911Z,12.67
2023-05-18T17:42:25.173Z,12.47
2023-05-18T17:44:51.434Z,12.27
2023-05-18T17:47:17.778Z,12.23
2023-05-18T17:49:44.063Z,12.18
2023-05-18T17:52:10.332Z,12.08
2023-05-18T17:54:36.583Z,11.96
2023-05-18T17:57:02.859Z,11.76
2023-05-18T17:59:29.123Z,11.57
2023-05-18T18:01:55.412Z,11.47
2023-05-18T18:13:42.896Z,10.85
2023-05-18T18:16:09.157Z,10.75
2023-05-18T18:18:35.400Z,10.66
2023-05-18T18:21:01.661Z,10.70
2023-05-18T18:23:27.908Z,10.66
2023-05-18T18:25:54.159Z,10.57
2023-05-18T18:28:20.404Z,10.53
2023-05-18T18:30:46.719Z,10.50
2023-05-18T18:33:13.008Z,10.29
2023-05-18T18:35:39.320Z,10.20
2023-05-18T18:38:05.580Z,10.18
2023-05-18T18:40:32.072Z,10.08
2023-05-18T18:42:58.576Z,10.06
2023-05-18T18:57:53.831Z,9.65
2023-05-18T19:00:20.093Z,9.63
2023-05-18T19:02:46.406Z,9.60
2023-05-18T19:05:12.812Z,9.57
2023-05-18T19:07:39.119Z,9.62
2023-05-18T19:10:05.721Z,9.73
2023-05-18T19:12:31.971Z,9.59
2023-05-18T19:14:58.233Z,9.64
2023-05-18T19:17:24.558Z,9.87
2023-05-18T19:19:50.826Z,10.02
2023-05-18T19:22:17.157Z,10.11
2023-05-18T19:24:43.404Z,10.03
2023-05-18T19:27:09.679Z,10.10
2023-05-18T19:29:35.918Z,10.16
2023-05-18T19:32:02.328Z,10.23
2023-05-18T19:34:28.652Z,10.23
2023-05-18T19:36:54.914Z,10.21
2023-05-18T19:39:21.198Z,10.18
2023-05-18T19:41:47.458Z,10.13
2023-05-18T19:44:14.090Z,10.08
2023-05-18T19:46:40.355Z,10.04
2023-05-18T19:49:06.603Z,10.05
2023-05-18T19:51:33.201Z,10.02
2023-05-18T19:53:59.453Z,10.01
2023-05-18T19:56:25.706Z,9.76
2023-05-18T19:58:51.965Z,8.92
2023-05-18T20:01:18.481Z,8.47
2023-05-18T20:03:44.934Z,8.81
2023-05-18T20:06:11.315Z,9.26
2023-05-18T20:08:37.591Z,9.41
2023-05-18T20:11:03.845Z,9.32
2023-05-18T20:13:30.101Z,8.58
2023-05-18T20:15:59.367Z,8.70
2023-05-18T20:18:25.620Z,9.18
2023-05-18T20:23:59.750Z,9.32
2023-05-18T20:26:26.475Z,9.32
2023-05-18T20:28:52.730Z,9.41
2023-05-18T20:53:01.920Z,9.31
2023-05-18T20:55:28.186Z,9.32
2023-05-18T20:57:54.460Z,9.32
2023-05-18T21:00:20.727Z,9.31
2023-05-18T21:02:47.166Z,9.30
2023-05-18T21:05:13.646Z,9.30
2023-05-18T21:07:39.942Z,9.20
2023-05-18T21:10:09.438Z,8.92
2023-05-18T21:12:35.729Z,8.96
2023-05-18T21:15:01.964Z,9.14
2023-05-18T21:17:28.251Z,9.14
2023-05-18T21:19:54.541Z,9.14
2023-05-18T21:22:20.791Z,9.11
2023-05-18T21:24:47.055Z,9.07
2023-05-18T21:27:13.314Z,9.01
2023-05-18T21:29:39.600Z,8.97
2023-05-18T21:32:05.958Z,8.93
2023-05-18T21:34:32.287Z,8.88
2023-05-18T21:36:58.543Z,8.88
2023-05-18T21:39:24.841Z,8.86
2023-05-18T21:41:51.091Z,8.84
2023-05-18T21:44:17.348Z,8.84
2023-05-18T21:46:43.592Z,8.82
2023-05-18T21:49:09.986Z,8.82
2023-05-18T21:51:36.242Z,8.82
2023-05-18T21:54:02.508Z,8.81
2023-05-18T21:56:28.764Z,8.81
2023-05-18T21:58:55.142Z,8.80
2023-05-18T22:01:21.564Z,8.69
2023-05-18T22:03:48.001Z,8.62
2023-05-18T22:06:14.274Z,8.61
2023-05-18T22:08:40.522Z,8.61
2023-05-18T22:11:06.764Z,8.47
2023-05-18T22:13:33.036Z,8.53
2023-05-18T22:15:59.307Z,8.56
2023-05-18T22:18:25.559Z,8.57
2023-05-18T22:20:51.810Z,8.52
2023-05-18T22:23:18.077Z,8.41
2023-05-18T22:25:45.000Z,8.44
2023-05-18T22:28:11.274Z,8.46
2023-05-18T22:30:37.526Z,8.45
2023-05-18T22:33:03.867Z,8.18
2023-05-18T22:35:30.154Z,8.32
2023-05-18T22:37:56.411Z,8.32
2023-05-18T22:40:22.947Z,8.38
2023-05-18T22:42:49.199Z,8.13
2023-05-18T22:45:15.441Z,8.09
2023-05-18T22:47:41.722Z,8.22
2023-05-18T22:50:08.334Z,8.19
2023-05-18T22:52:34.616Z,8.26
2023-05-18T22:55:00.947Z,8.28
2023-05-18T22:57:27.276Z,8.29
2023-05-18T22:59:53.535Z,8.25
2023-05-18T23:02:19.852Z,8.24
2023-05-18T23:04:46.159Z,8.25
2023-05-18T23:07:12.414Z,7.89
2023-05-18T23:09:38.671Z,7.98
2023-05-18T23:12:05.385Z,8.04
2023-05-18T23:14:31.630Z,8.02
2023-05-18T23:16:57.866Z,8.07
2023-05-18T23:19:24.341Z,8.00
2023-05-18T23:21:50.644Z,7.73
2023-05-18T23:24:16.890Z,7.79
2023-05-18T23:26:43.475Z,7.90
2023-05-18T23:29:09.818Z,7.85
2023-05-18T23:31:36.173Z,7.79
2023-05-18T23:34:02.537Z,7.70
2023-05-18T23:36:29.946Z,7.64
2023-05-18T23:38:56.450Z,7.82
2023-05-18T23:41:22.803Z,7.89
2023-05-18T23:43:49.211Z,7.88
2023-05-18T23:46:15.573Z,7.95
2023-05-18T23:48:41.944Z,7.75
2023-05-18T23:51:08.193Z,7.87
2023-05-18T23:53:34.459Z,7.95
2023-05-18T23:56:00.720Z,7.91
2023-05-18T23:58:27.733Z,7.83
